Reportages photos

Connexion

10Km

10 KM FOULEES GUINOISES du 25/03/17 (Reelle 10)
Rang Dossard Nom Prénom Temps Cat Rang Cat Ecart Ecart Cat Club Vitesse Km/h Temps au Km
1 115 PRUVOT YOHANN 00:32:33 SEM 1 00:00:00 00:00:00 A.S. MARCK 18,433 03:15
2 246 HENQUEZ THIERRY 00:33:29 V1M 1 00:00:56 00:00:00 - 17,919 03:21
3 323 BRUNET MICHEL 00:33:47 SEM 2 00:01:14 00:01:14 BLANC NEZ TRIATHLON 17,760 03:23
4 372 DELARACE JEAN-MARC 00:34:00 V2M 1 00:01:27 00:00:00 RC - Arras 17,647 03:24
5 4 PICHONNIER GUILLAUME 00:34:08 SEM 3 00:01:35 00:01:35 BOULOGNE ATHLETIQUE CLUB 17,578 03:25
6 46 COTTREZ LAURENT 00:34:16 SEM 4 00:01:43 00:01:43 AC VILLERS COTTERETS 17,510 03:26
7 335 CLABAUT ALEXIS 00:34:50 SEM 5 00:02:17 00:02:17 PATRIOTES CROSS DE GUINES 17,225 03:29
8 145 BRUNO OLIVIER 00:34:53 V1M 2 00:02:20 00:01:24 - 17,200 03:29
9 382 PREVOST ERIC 00:34:56 V1M 3 00:02:23 00:01:27 ELAN 59 17,176 03:30
10 230 GILLODTS GUILLAUME 00:35:17 V1M 4 00:02:44 00:01:48 CLUB ATHLE. COUDEKERQUE-B 17,005 03:32
11 238 PRUVOT LUDOVIC 00:35:25 V1M 5 00:02:52 00:01:56 BOULOGNE ATHLETIQUE CLUB 16,941 03:33
12 220 LEVEL FABIEN 00:35:37 SEM 6 00:03:04 00:03:04 ATHLETIQUE CLUB CAPELLOIS 16,846 03:34
13 353 SAILLY NICOLAS 00:35:41 SEM 7 00:03:08 00:03:08 ASU DUNKERQUE 16,815 03:34
14 214 GOURDIN ERIC 00:35:51 V1M 6 00:03:18 00:02:22 ATHLETIQUE CLUB CAPELLOIS 16,736 03:35
15 350 DELLIAUX OLIVIER 00:36:09 SEM 8 00:03:36 00:03:36 TRIATHLON CLUB BOULONNAIS 16,598 03:37
16 259 DOEUFF GWENAL 00:36:13 SEM 9 00:03:40 00:03:40 SO CALAIS 16,567 03:37
17 344 LECERF JOHNNY 00:36:18 V1M 7 00:03:45 00:02:49 - 16,529 03:38
18 282 DELVALLEE ALEXANDRE 00:36:21 SEM 10 00:03:48 00:03:48 ATHLETISME CLUB OUTREAU 16,506 03:38
19 215 GRIVART VALENTIN 00:36:28 SEM 11 00:03:55 00:03:55 ATHLETIQUE CLUB CAPELLOIS 16,453 03:39
20 154 DELPLANQUE PAUL 00:36:29 SEM 12 00:03:56 00:03:56 PATRIOTES CROSS DE GUINES 16,446 03:39
21 375 KIEFFER PIERRE 00:36:29 SEM 13 00:03:56 00:03:56 TRIATHLON CLUB LIEVIN 16,446 03:39
22 23 RICOUART ALAIN 00:36:31 V1M 8 00:03:58 00:03:02 AC AUDOMAROIS 16,431 03:39
23 334 JOSEPH JOEL 00:36:35 V2M 2 00:04:02 00:02:35 PATRIOTES CROSS DE GUINES 16,401 03:40
24 218 LEBLOND ARNAUD 00:36:47 V1M 9 00:04:14 00:03:18 ATHLETIQUE CLUB CAPELLOIS 16,312 03:41
25 273 LIMOUSIN STEPHANE 00:36:55 V1M 10 00:04:22 00:03:26 PATRIOTES CROSS DE GUINES 16,253 03:42
26 60 DUBUISSON ROMAIN 00:36:57 SEM 14 00:04:24 00:04:24 Gravelines Triathlon 16,238 03:42
27 359 DUCROCQ ARNAUD 00:37:04 V1M 11 00:04:31 00:03:35 PATRIOTES CROSS DE GUINES 16,187 03:42
28 196 DOCQUOIS FREDERIC 00:37:07 V1M 12 00:04:34 00:03:38 LE DRAPEAU 16,165 03:43
29 301 DIMPRE CHRISTOPHE 00:37:10 V1M 13 00:04:37 00:03:41 A.S. MARCK 16,143 03:43
30 103 DUCROCQ LINDA 00:37:15 SEF 1 00:04:42 00:00:00 PATRIOTES CROSS DE GUINES 16,107 03:44
31 347 MALFOY JEREMY 00:37:29 SEM 15 00:04:56 00:04:56 - 16,007 03:45
32 361 MINART BAPTISTE 00:38:01 SEM 16 00:05:28 00:05:28 - 15,783 03:48
33 98 BALY SYLVAIN 00:38:11 SEM 17 00:05:38 00:05:38 - 15,714 03:49
34 231 GILLODTS ISABELLE 00:38:12 V1F 1 00:05:39 00:00:00 CLUB ATHLE. COUDEKERQUE-B 15,707 03:49
35 360 ADMONT GUILLAUME 00:38:13 SEM 18 00:05:40 00:05:40 - 15,700 03:49
36 243 BATTESTI DAVID 00:38:15 SEM 19 00:05:42 00:05:42 TEAM RAKLETTE 15,686 03:49
37 357 PRUDHOMME GEORGES 00:38:17 V2M 3 00:05:44 00:04:17 COURIR DANS LE LUMBROIS 15,673 03:50
38 374 GUILBERT ETIENNE 00:38:20 V1M 14 00:05:47 00:04:51 BERCK A C O 15,652 03:50
39 293 LARUELLE FREDERIC 00:38:22 V1M 15 00:05:49 00:04:53 WIMEREUX RUNNING CLUB 15,639 03:50
40 329 TISSERAND THIBAULT 00:38:27 SEM 20 00:05:54 00:05:54 - 15,605 03:51
41 18 ETIENNE JEROME 00:38:33 SEM 21 00:06:00 00:06:00 - 15,564 03:51
42 50 CLIPET TONY 00:38:34 V1M 16 00:06:01 00:05:05 - 15,557 03:51
43 276 BAHEU ROMAIN 00:38:37 SEM 22 00:06:04 00:06:04 ATHLETISME CLUB OUTREAU 15,537 03:52
44 197 GUEUDRE FABRICE 00:38:38 SEM 23 00:06:05 00:06:05 LE DRAPEAU 15,531 03:52
45 368 VERITE CEDRIC 00:38:43 SEM 24 00:06:10 00:06:10 SPORT PLUS 15,497 03:52
46 299 QUIQUET CHRISTOPHE 00:38:45 V2M 4 00:06:12 00:04:45 WIMEREUX RUNNING CLUB 15,484 03:53
47 27 DEWET WILFRIED 00:38:47 V1M 17 00:06:14 00:05:18 - 15,471 03:53
48 367 ROBLIN JEREMY 00:38:52 SEM 25 00:06:19 00:06:19 TRIATHLON CLUB BOULONNAIS 15,437 03:53
49 302 LEBLANC DAVID 00:38:54 V1M 18 00:06:21 00:05:25 A.S. MARCK 15,424 03:53
50 283 DESACHY MARC 00:38:57 V1M 19 00:06:24 00:05:28 ATHLETISME CLUB OUTREAU 15,404 03:54
51 111 COUPIN FRANCK 00:38:58 SEM 26 00:06:25 00:06:25 - 15,398 03:54
52 370 CHAPUT CORENTIN 00:38:59 SEM 27 00:06:26 00:06:26 - 15,391 03:54
53 212 DUBOIS STEPHANE 00:39:02 V1M 20 00:06:29 00:05:33 ATHLETIQUE CLUB CAPELLOIS 15,371 03:54
54 248 MALE MICHAEL 00:39:03 V1M 21 00:06:30 00:05:34 SPORT EVASION DES 2 CAPS 15,365 03:54
55 366 HODIQUE HERVE 00:39:09 V1M 22 00:06:36 00:05:40 TEAM TRAIL 62 15,326 03:55
56 233 LEMAITRE LAURENT 00:39:11 V1M 23 00:06:38 00:05:42 - 15,313 03:55
57 330 DUCLOY EDDY 00:39:13 V1M 24 00:06:40 00:05:44 PATRIOTES CROSS DE GUINES 15,300 03:55
58 342 MIRMONT REMI 00:39:16 SEM 28 00:06:43 00:06:43 - 15,280 03:56
59 28 BARBE STEPHANE 00:39:32 V1M 25 00:06:59 00:06:03 MARCK ATHLON 15,177 03:57
60 120 GIROUD FRANCK 00:39:38 V1M 26 00:07:05 00:06:09 A.S. MARCK 15,139 03:58
61 52 TRINQUET LUC 00:39:51 V2M 5 00:07:18 00:05:51 LYS CALAIS TRIATHLON 15,056 03:59
62 403 BRAYE VANESSA 00:39:52 SEF 2 00:07:19 00:02:37 LYS CALAIS TRIATHLON 15,050 03:59
63 224 SELLIER CHRISTOPHE 00:40:05 V1M 27 00:07:32 00:06:36 ATHLETIQUE CLUB CAPELLOIS 14,969 04:00
64 253 JACQUART CYRIL 00:40:06 SEM 29 00:07:33 00:07:33 - 14,963 04:01
65 21 GOBERT YANN 00:40:10 SEM 30 00:07:37 00:07:37 - 14,938 04:01
66 191 ANNO CHRISTOPHE 00:40:13 V1M 28 00:07:40 00:06:44 LE DRAPEAU 14,919 04:01
67 358 MARTEL FRANCK 00:40:18 V2M 6 00:07:45 00:06:18 A.S. MARCK 14,888 04:02
68 127 CRESSON PASCAL 00:40:20 V2M 7 00:07:47 00:06:20 A.S. MARCK 14,876 04:02
69 13 BERLY BORIS 00:40:25 SEM 31 00:07:52 00:07:52 - 14,845 04:03
70 110 LAVIGNE JEAN-CHRISTOPHE 00:40:28 V1M 29 00:07:55 00:06:59 LYS CALAIS TRIATHLON 14,827 04:03
71 269 DENEZ FRANCOIS 00:40:31 V1M 30 00:07:58 00:07:02 - 14,809 04:03
72 288 MORICE ARNAUD 00:40:31 V1M 31 00:07:58 00:07:02 ATHLETISME CLUB OUTREAU 14,809 04:03
73 119 SCHUPPE CLOTAIRE 00:40:35 V2M 8 00:08:02 00:06:35 A.S. MARCK 14,784 04:04
74 186 CARDON FLORIAN 00:40:40 SEM 32 00:08:07 00:08:07 LE DRAPEAU 14,754 04:04
75 320 SERGENT GUILLAUME 00:40:43 SEM 33 00:08:10 00:08:10 - 14,736 04:04
76 373 CALOIN JEREMY 00:40:43 SEM 34 00:08:10 00:08:10 - 14,736 04:04
77 112 DAQUIN NICOLAS 00:40:44 SEM 35 00:08:11 00:08:11 - 14,730 04:04
78 362 MANIER WILLIAM 00:40:44 SEM 36 00:08:11 00:08:11 - 14,730 04:04
79 160 WIDEHEM CHRISTIAN 00:40:49 SEM 37 00:08:16 00:08:16 - 14,700 04:05
80 88 DEFOSSE REMY 00:40:53 CAM 1 00:08:20 00:00:00 BLANC NEZ TRIATHLON 14,676 04:05
81 322 MILLE XAVIER 00:40:55 SEM 38 00:08:22 00:08:22 - 14,664 04:05
82 155 DELEGLISE CYRIL 00:40:56 SEM 39 00:08:23 00:08:23 COURIR DANS LE LUMBROIS 14,658 04:06
83 381 STOPIN THEO 00:40:58 SEM 40 00:08:25 00:08:25 - 14,646 04:06
84 129 VANDENABEELE FREDERIC 00:40:59 V1M 32 00:08:26 00:07:30 A.S. MARCK 14,640 04:06
85 284 DEU DAVID 00:41:02 SEM 41 00:08:29 00:08:29 ATHLETISME CLUB OUTREAU 14,622 04:06
86 343 REBIER FANNY 00:41:10 SEF 3 00:08:37 00:03:55 - 14,575 04:07
87 261 RINGOT MICKAEL 00:41:11 SEM 42 00:08:38 00:08:38 SO CALAIS 14,569 04:07
88 39 PRUDHOMME FRANCKY 00:41:16 V1M 33 00:08:43 00:07:47 COURIR DANS LE LUMBROIS 14,540 04:08
89 30 DUCLOIE JEROME 00:41:27 V1M 34 00:08:54 00:07:58 - 14,475 04:09
90 134 DUCROCQ YVES 00:41:33 V2M 9 00:09:00 00:07:33 - 14,440 04:09
91 159 BEGUE THIERRY 00:41:35 V2M 10 00:09:02 00:07:35 - 14,429 04:10
92 307 LEBLOND GUILLAUME 00:41:39 SEM 43 00:09:06 00:09:06 - 14,406 04:10
93 264 BOCQUET PATRICK 00:41:42 V3M 1 00:09:09 00:00:00 - 14,388 04:10
94 376 CABOCHE CHRISTOPHE 00:41:47 V1M 35 00:09:14 00:08:18 - 14,360 04:11
95 92 LESCOP NICOLAS 00:42:00 SEM 44 00:09:27 00:09:27 JEUNESSE CAPPELLOISE 14,286 04:12
96 146 BOURRE JULIEN 00:42:10 SEM 45 00:09:37 00:09:37 - 14,229 04:13
97 263 WILLO JULIEN 00:42:11 SEM 46 00:09:38 00:09:38 - 14,224 04:13
98 365 CUVELIER CEDRIC 00:42:12 SEM 47 00:09:39 00:09:39 - 14,218 04:13
99 140 LEROY FREDERIC 00:42:15 SEM 48 00:09:42 00:09:42 - 14,201 04:14
100 141 ROBART EDDY 00:42:17 V1M 36 00:09:44 00:08:48 CS NESLES 14,190 04:14
101 274 LELEU LAETITIA 00:42:18 V1F 2 00:09:45 00:04:06 TOUQUET OPALE ATHLETISME 14,184 04:14
102 76 DEGUINES MATHIEU 00:42:19 SEM 49 00:09:46 00:09:46 - 14,179 04:14
103 8 DUVILLARD DAMIEN 00:42:20 SEM 50 00:09:47 00:09:47 - 14,173 04:14
104 53 TETARD CHRISTOPHE 00:42:20 V1M 37 00:09:47 00:08:51 OPALE TRAIL NATURE 14,173 04:14
105 75 DEGUINES NICOLAS 00:42:24 SEM 51 00:09:51 00:09:51 - 14,151 04:14
106 42 MIEZE NICOLAS 00:42:27 SEM 52 00:09:54 00:09:54 - 14,134 04:15
107 257 OUGHALIME BRAHIM 00:42:34 SEM 53 00:10:01 00:10:01 SO CALAIS 14,096 04:15
108 277 BOCHENT MATTHIEU 00:42:34 V1M 38 00:10:01 00:09:05 ATHLETISME CLUB OUTREAU 14,096 04:15
109 275 BADON EMMANUEL 00:42:37 V1M 39 00:10:04 00:09:08 ATHLETISME CLUB OUTREAU 14,079 04:16
110 66 LELEU JEAN-FRANCOIS 00:42:41 V2M 11 00:10:08 00:08:41 - 14,057 04:16
111 72 EHLEN THOMAS 00:42:43 CAM 2 00:10:10 00:01:50 PATRIOTES CROSS DE GUINES 14,046 04:16
112 240 CHIVET PAUL 00:42:44 SEM 54 00:10:11 00:10:11 MARQUISE 14,041 04:16
113 311 OGES NICOLAS 00:42:46 V1M 40 00:10:13 00:09:17 ETAPLES TRIATHLON 14,030 04:17
114 86 DEFACHELLES HERVE 00:42:46 V1M 41 00:10:13 00:09:17 PATRIOTES CROSS DE GUINES 14,030 04:17
115 157 GOUDINOUX DIDIER 00:42:47 V2M 12 00:10:14 00:08:47 ES SAINT PATHUS 14,024 04:17
116 341 BUY JACQUES 00:42:52 V2M 13 00:10:19 00:08:52 PATRIOTES CROSS DE GUINES 13,997 04:17
117 213 FARNWORTH GRAEME 00:42:55 V2M 14 00:10:22 00:08:55 ATHLETIQUE CLUB CAPELLOIS 13,981 04:17
118 121 CADET JEAN PHILIPPE 00:42:56 V1M 42 00:10:23 00:09:27 A.S. MARCK 13,975 04:18
119 251 COUPIN WILFRIED 00:42:59 SEM 55 00:10:26 00:10:26 BLANC NEZ TRIATHLON 13,959 04:18
120 345 SCOTTE MATTHIEU 00:43:01 SEM 56 00:10:28 00:10:28 - 13,948 04:18
121 272 OLLIVIER ERIC 00:43:06 V1M 43 00:10:33 00:09:37 ASPTT LILLE METROPOLE ATHLETISME 13,921 04:19
122 245 PIGERRE CHLOE 00:43:08 SEF 4 00:10:35 00:05:53 - 13,910 04:19
123 102 THOMAS ALEXANDRE 00:43:10 SEM 57 00:10:37 00:10:37 - 13,900 04:19
124 125 MASCOT DAVID 00:43:13 V1M 44 00:10:40 00:09:44 A.S. MARCK 13,884 04:19
125 228 DAGNEAUX FABIEN 00:43:13 V1M 45 00:10:40 00:09:44 DESVRES ATHLETISME 13,884 04:19
126 268 HAVIER SAMUEL 00:43:14 SEM 58 00:10:41 00:10:41 US LEFFRINCKOUCKE JOGGING 13,878 04:19
127 266 DUMONT GEORGES 00:43:14 V1M 46 00:10:41 00:09:45 TOUQUET TRAIL NATURE 13,878 04:19
128 226 GRESSIER OLIVIER 00:43:15 V1M 47 00:10:42 00:09:46 ENTENTE MARITIME ATHL. 13,873 04:20
129 24 WITKOWSKI YOANNN 00:43:16 SEM 59 00:10:43 00:10:43 - 13,867 04:20
130 227 BALAIR TONY 00:43:17 SEM 60 00:10:44 00:10:44 DESVRES ATHLETISME 13,862 04:20
131 26 LEFEBVRE WILLIAM 00:43:21 SEM 61 00:10:48 00:10:48 Gravelines Triathlon 13,841 04:20
132 222 NORMANT ALAIN 00:43:21 V2M 15 00:10:48 00:09:21 ATHLETIQUE CLUB CAPELLOIS 13,841 04:20
133 38 BAILLY JEROME 00:43:25 V1M 48 00:10:52 00:09:56 COURIR DANS LE LUMBROIS 13,820 04:20
134 354 MOITY FRANCK 00:43:34 V2M 16 00:11:01 00:09:34 - 13,772 04:21
135 36 STEVENART MICHEL 00:43:38 V2M 17 00:11:05 00:09:38 COURIR DANS LE LUMBROIS 13,751 04:22
136 6 IDBELLA MOHAMED 00:43:39 V1M 49 00:11:06 00:10:10 - 13,746 04:22
137 19 DELPIERRE GUILLAUME 00:43:39 SEM 62 00:11:06 00:11:06 - 13,746 04:22
138 40 DECUPPER JEAN SEBASTIEN 00:43:40 V1M 50 00:11:07 00:10:11 COURIR DANS LE LUMBROIS 13,740 04:22
139 166 LELAN CEDRIC 00:43:41 V1M 51 00:11:08 00:10:12 ATHLETISME CLUB OUTREAU 13,735 04:22
140 138 FRAMMERY JOHANN 00:43:44 V1M 52 00:11:11 00:10:15 - 13,720 04:22
141 77 VERMAND MICKAEL 00:43:47 SEM 63 00:11:14 00:11:14 - 13,704 04:23
142 55 HENON MAXIME 00:43:48 SEM 64 00:11:15 00:11:15 COURIR DANS LE LUMBROIS 13,699 04:23
143 142 PIERRU JULIEN 00:43:50 SEM 65 00:11:17 00:11:17 - 13,688 04:23
144 336 CAMPAGNE FLORENT 00:43:50 SEM 66 00:11:17 00:11:17 - 13,688 04:23
145 100 VIVIEZ VINCENT 00:43:51 SEM 67 00:11:18 00:11:18 BLANC NEZ TRIATHLON 13,683 04:23
146 413 PAVY DAVID 00:43:56 V1M 53 00:11:23 00:10:27 - 13,657 04:24
147 371 BOURDON JEROME 00:43:57 V1M 54 00:11:24 00:10:28 - 13,652 04:24
148 195 CHOUROT LUCIEN 00:43:58 V3M 2 00:11:25 00:02:16 LE DRAPEAU 13,647 04:24
149 404 LEGROS MATHIEU 00:44:00 SEM 68 00:11:27 00:11:27 - 13,636 04:24
150 43 GILLOT CHRISTOPHE 00:44:01 V1M 55 00:11:28 00:10:32 - 13,631 04:24
151 87 DEFOSSE LUDOVIC 00:44:16 V1M 56 00:11:43 00:10:47 - 13,554 04:26
152 128 BARBAUT ISABELLE 00:44:28 V2F 1 00:11:55 00:00:00 A.S. MARCK 13,493 04:27
153 279 BRABANT VINCENT 00:44:30 SEM 69 00:11:57 00:11:57 ATHLETISME CLUB OUTREAU 13,483 04:27
154 321 CALOIN MARTIN 00:44:31 SEM 70 00:11:58 00:11:58 MCCA 13,478 04:27
155 137 FRANCOIS NICOLAS 00:44:31 SEM 71 00:11:58 00:11:58 - 13,478 04:27
156 74 WILLAERT JULIEN 00:44:32 V1M 57 00:11:59 00:11:03 - 13,473 04:27
157 44 PIDOU AURELIEN 00:44:32 SEM 72 00:11:59 00:11:59 - 13,473 04:27
158 241 DEPRIESTER MICHAEL 00:44:37 SEM 73 00:12:04 00:12:04 US LEFFRINCKOUCKE JOGGING 13,448 04:28
159 305 TASSART HELENE 00:44:41 SEF 5 00:12:08 00:07:26 A.S. MARCK 13,428 04:28
160 80 TRUPIN GREGORY 00:44:41 SEM 74 00:12:08 00:12:08 - 13,428 04:28
161 41 SABLON EMMANUEL 00:44:42 V1M 58 00:12:09 00:11:13 TEAM TRAIL OPALE TTO 13,423 04:28
162 340 GUILBERT KEVIN 00:44:43 SEM 75 00:12:10 00:12:10 - 13,418 04:28
163 204 VANHERSECKE AMANDINE 00:44:53 SEF 6 00:12:20 00:07:38 LE DRAPEAU 13,368 04:29
164 190 NAJMI AICHA 00:44:55 V1F 3 00:12:22 00:06:43 LE DRAPEAU 13,358 04:30
165 198 HANON JEAN-PIERRE 00:44:55 V3M 3 00:12:22 00:03:13 LE DRAPEAU 13,358 04:30
166 379 DOYER ERIC 00:44:57 V1M 59 00:12:24 00:11:28 - 13,348 04:30
167 285 FEUTRY DAVID 00:44:58 V1M 60 00:12:25 00:11:29 ATHLETISME CLUB OUTREAU 13,343 04:30
168 17 MELCHIOR RENAUD 00:45:02 SEM 76 00:12:29 00:12:29 - 13,323 04:30
169 82 VERMEULEN ANTOINE 00:45:05 SEM 77 00:12:32 00:12:32 - 13,309 04:30
170 339 LEFEBVRE DAVID 00:45:08 V1M 61 00:12:35 00:11:39 - 13,294 04:31
171 79 LENGLET SEBASTIEN 00:45:09 V1M 62 00:12:36 00:11:40 - 13,289 04:31
172 255 LENGLET NICOLAS 00:45:09 V1M 63 00:12:36 00:11:40 - 13,289 04:31
173 149 ABIDI SAMYR 00:45:11 SEM 78 00:12:38 00:12:38 TETEGHEM ATHLETISME 13,279 04:31
174 236 LEFEBVRE JOACHIM 00:45:11 SEM 79 00:12:38 00:12:38 - 13,279 04:31
175 319 ARBLAY BERTRAND 00:45:12 V1M 64 00:12:39 00:11:43 - 13,274 04:31
176 5163 JOLY PASCAL 00:45:13 V1M 65 00:12:40 00:11:44 - 13,269 04:31
177 402 TERNISIEN SEBASTIEN 00:45:14 V1M 66 00:12:41 00:11:45 CE PORT DE CALAIS 13,265 04:31
178 5025 LECERF VINCENT 00:45:14 V1M 67 00:12:41 00:11:45 - 13,265 04:31
179 289 MORZA YANICK 00:45:15 V1M 68 00:12:42 00:11:46 ATHLETISME CLUB OUTREAU 13,260 04:31
180 131 HAVART CHARLES 00:45:17 V1M 69 00:12:44 00:11:48 JOGGING CLUB LICQUOIS 13,250 04:32
181 408 CARDON MARTIN 00:45:20 SEM 80 00:12:47 00:12:47 - 13,235 04:32
182 37 BAILLY AURELIE 00:45:22 V1F 4 00:12:49 00:07:10 COURIR DANS LE LUMBROIS 13,226 04:32
183 254 CATOIRE DIDIER 00:45:26 V1M 70 00:12:53 00:11:57 - 13,206 04:33
184 250 BERNARD THIERRY 00:45:26 V2M 18 00:12:53 00:11:26 MCT 13,206 04:33
185 348 BOUHASSOUN MEHDI 00:45:27 V1M 71 00:12:54 00:11:58 ATHLETISME CLUB OUTREAU 13,201 04:33
186 101 BONNETAUD GREGORY 00:45:31 V1M 72 00:12:58 00:12:02 TEAM TRAIL 62 13,182 04:33
187 332 DENEZ CHRISTELLE 00:45:33 V2F 2 00:13:00 00:01:05 PATRIOTES CROSS DE GUINES 13,172 04:33
188 333 JOLY DAVID 00:45:33 V1M 73 00:13:00 00:12:04 PATRIOTES CROSS DE GUINES 13,172 04:33
189 81 BERTHOME GILLES 00:45:36 V2M 19 00:13:03 00:11:36 - 13,158 04:34
190 47 CLIPET GAETAN 00:45:41 SEM 81 00:13:08 00:13:08 - 13,134 04:34
191 271 ROBACHE JULIEN 00:45:56 SEM 82 00:13:23 00:13:23 - 13,062 04:36
192 126 PUJADE FRANCOIS 00:45:57 SEM 83 00:13:24 00:13:24 A.S. MARCK 13,058 04:36
193 244 DESCHAMPS CHRISTOPHE 00:45:59 V1M 74 00:13:26 00:12:30 - 13,048 04:36
194 242 DUFLOS GUILLAUME 00:45:59 V1M 75 00:13:26 00:12:30 ENTENTE MARITIME ATHL. 13,048 04:36
195 265 BOMY NOEMIE 00:46:00 SEF 7 00:13:27 00:08:45 - 13,043 04:36
196 380 HALIPRE BENOIT 00:46:04 V1M 76 00:13:31 00:12:35 - 13,025 04:36
197 117 AGEZ DAVID 00:46:04 V1M 77 00:13:31 00:12:35 A.S. MARCK 13,025 04:36
198 116 DETRES FREDERIC 00:46:11 V1M 78 00:13:38 00:12:42 A.S. MARCK 12,992 04:37
199 210 RICHARD CHRISTINE 00:46:14 V2F 3 00:13:41 00:01:46 SAINT MARTIN ATHLETISME 12,978 04:37
200 312 THIBAUT VIVIEN 00:46:20 SEM 84 00:13:47 00:13:47 - 12,950 04:38
201 249 MORTIER ROMAIN 00:46:24 SEM 85 00:13:51 00:13:51 - 12,931 04:38
202 235 LEFEBVRE ANTHONY 00:46:26 SEM 86 00:13:53 00:13:53 - 12,922 04:39
203 178 GAVOIS JIMMY 00:46:28 V1M 79 00:13:55 00:12:59 PATRIOTES CROSS DE GUINES 12,912 04:39
204 177 PIEDBOIS WILLY 00:46:28 V1M 80 00:13:55 00:12:59 PATRIOTES CROSS DE GUINES 12,912 04:39
205 143 DELATTRE PAULINE 00:46:28 SEF 8 00:13:55 00:09:13 - 12,912 04:39
206 286 GIRARD ARNAUD 00:46:29 SEM 87 00:13:56 00:13:56 ATHLETISME CLUB OUTREAU 12,908 04:39
207 352 PATEY MATHIEU 00:46:34 SEM 88 00:14:01 00:14:01 - 12,885 04:39
208 106 BERTOUT THIERRY 00:46:35 V2M 20 00:14:02 00:12:35 - 12,880 04:40
209 61 BECKER BENJAMIN 00:46:36 SEM 89 00:14:03 00:14:03 - 12,876 04:40
210 105 VANDENBROUCKE GUILLAUME 00:46:39 SEM 90 00:14:06 00:14:06 - 12,862 04:40
211 193 BAILLIEU ROSELINE 00:46:40 SEF 9 00:14:07 00:09:25 LE DRAPEAU 12,857 04:40
212 327 TISSERAND XAVIER 00:46:43 V2M 21 00:14:10 00:12:43 - 12,843 04:40
213 310 BERTIN AUBIN 00:46:48 SEM 91 00:14:15 00:14:15 - 12,821 04:41
214 223 REGNIER CHRISTINE 00:46:50 V2F 4 00:14:17 00:02:22 ATHLETIQUE CLUB CAPELLOIS 12,811 04:41
215 63 BOIN JESSY 00:46:50 V1M 81 00:14:17 00:13:21 BLANC NEZ TRIATHLON 12,811 04:41
216 287 LEBON MAGALI 00:46:50 SEF 10 00:14:17 00:09:35 ATHLETISME CLUB OUTREAU 12,811 04:41
217 292 SENECHAL NICOLAS 00:46:51 V1M 82 00:14:18 00:13:22 ATHLETISME CLUB OUTREAU 12,807 04:41
218 150 BOULOGNE SOPHIE 00:47:02 SEF 11 00:14:29 00:09:47 - 12,757 04:42
219 132 AZZOUZ ISAAC 00:47:08 SEM 92 00:14:35 00:14:35 COLEMBERT 12,730 04:43
220 405 CAUDOUX PATRICK 00:47:18 V2M 22 00:14:45 00:13:18 - 12,685 04:44
221 337 DESCHARLES DAVID 00:47:29 V2M 23 00:14:56 00:13:29 - 12,636 04:45
222 188 CODRON STEPHANE 00:47:30 V1M 83 00:14:57 00:14:01 LE DRAPEAU 12,632 04:45
223 377 DOUBLET OLIVIER 00:47:38 V1M 84 00:15:05 00:14:09 - 12,596 04:46
224 1 BEAUBOIS LUCAS 00:47:47 BEM 1 00:15:14 00:00:00 COURIR DANS LE LUMBROIS 12,557 04:47
225 192 BAILLIEU CHRISTIAN 00:47:52 V1M 85 00:15:19 00:14:23 LE DRAPEAU 12,535 04:47
226 59 DA SILVA LUDOVIC 00:47:55 V2M 24 00:15:22 00:13:55 - 12,522 04:47
227 152 SAMELOT VINCENT 00:47:59 SEM 93 00:15:26 00:15:26 PATRIOTES CROSS DE GUINES 12,504 04:48
228 167 HAUSSELIN CEDRIC 00:47:59 SEM 94 00:15:26 00:15:26 - 12,504 04:48
229 406 MYSSYNE NICOLAS 00:48:01 SEM 95 00:15:28 00:15:28 - 12,496 04:48
230 206 GRESSIER PHILIPPE 00:48:06 V2M 25 00:15:33 00:14:06 SAINT MARTIN ATHLETISME 12,474 04:49
231 325 DELEGLISE GWENAELLE 00:48:08 SEF 12 00:15:35 00:10:53 COURIR DANS LE LUMBROIS 12,465 04:49
232 175 MAZURIER MARGAUX 00:48:10 SEF 13 00:15:37 00:10:55 - 12,457 04:49
233 136 BEGUE YANNICK 00:48:14 V1M 86 00:15:41 00:14:45 - 12,440 04:49
234 11 VIVES SERVERA SYLVIE 00:48:17 V2F 5 00:15:44 00:03:49 - 12,427 04:50
235 176 MAZURIER ERIC 00:48:21 V2M 26 00:15:48 00:14:21 SPORT EVASION DES 2 CAPS 12,410 04:50
236 9 FRISCOURT PASCAL 00:48:24 V1M 87 00:15:51 00:14:55 - 12,397 04:50
237 54 HADRI SEBASTIEN 00:48:24 SEM 96 00:15:51 00:15:51 FOULEES LOONOISES 12,397 04:50
238 123 LAPIERRE CATHY 00:48:27 SEF 14 00:15:54 00:11:12 A.S. MARCK 12,384 04:51
239 122 CLEMENT STEPHANE 00:48:29 V1M 88 00:15:56 00:15:00 A.S. MARCK 12,375 04:51
240 412 DUBROEUCQ FRANCIS 00:48:33 V3M 4 00:16:00 00:06:51 AMIS CYCLE ARDRESIS 12,358 04:51
241 316 MAILLARD BEATRICE 00:48:33 V1F 5 00:16:00 00:10:21 - 12,358 04:51
242 221 NOEL AURELIEN 00:48:35 CAM 3 00:16:02 00:07:42 ATHLETIQUE CLUB CAPELLOIS 12,350 04:52
243 211 BREQUEVILLE LIONEL 00:48:36 V1M 89 00:16:03 00:15:07 ATHLETIQUE CLUB CAPELLOIS 12,346 04:52
244 331 SANIEZ FABIEN 00:48:38 SEM 97 00:16:05 00:16:05 - 12,337 04:52
245 168 VEILLE MARC 00:48:40 SEM 98 00:16:07 00:16:07 - 12,329 04:52
246 64 LEFEBVRE ARNAUD 00:48:47 V1M 90 00:16:14 00:15:18 - 12,299 04:53
247 151 HURTEAU NICOLAS 00:48:51 SEM 99 00:16:18 00:16:18 - 12,282 04:53
248 164 COOPMAN PASCAL 00:48:54 V2M 27 00:16:21 00:14:54 - 12,270 04:53
249 234 LECOUFFE AMANDINE 00:49:02 SEF 15 00:16:29 00:11:47 - 12,237 04:54
250 351 PIGERRE SYLVAIN 00:49:09 SEM 100 00:16:36 00:16:36 - 12,208 04:55
251 202 PAQUES ERIC 00:49:10 V2M 28 00:16:37 00:15:10 LE DRAPEAU 12,203 04:55
252 71 DELELIS CHRISTOPHE 00:49:10 V2M 29 00:16:37 00:15:10 - 12,203 04:55
253 239 LEGRAND CEDRIC 00:49:13 SEM 101 00:16:40 00:16:40 - 12,191 04:55
254 219 LEBON RUDY 00:49:13 SEM 102 00:16:40 00:16:40 ATHLETIQUE CLUB CAPELLOIS 12,191 04:55
255 315 MAILLARD GAETAN 00:49:13 V2M 30 00:16:40 00:15:13 - 12,191 04:55
256 225 TETARD ISABELLE 00:49:13 V1F 6 00:16:40 00:11:01 ATHLETIQUE CLUB CAPELLOIS 12,191 04:55
257 209 PIHL JOEL 00:49:15 V3M 5 00:16:42 00:07:33 SAINT MARTIN ATHLETISME 12,183 04:56
258 29 DUVIVIER CLEMENT 00:49:16 SEM 103 00:16:43 00:16:43 - 12,179 04:56
259 91 FASQUEL CHLOE 00:49:19 SEF 16 00:16:46 00:12:04 - 12,166 04:56
260 217 HOLUIGUE VIRGINIE 00:49:28 SEF 17 00:16:55 00:12:13 ATHLETIQUE CLUB CAPELLOIS 12,129 04:57
261 216 HOLUIGUE FREDERIC 00:49:29 V1M 91 00:16:56 00:16:00 ATHLETIQUE CLUB CAPELLOIS 12,125 04:57
262 208 MALFOY MICHEL 00:49:31 V3M 6 00:16:58 00:07:49 SAINT MARTIN ATHLETISME 12,117 04:57
263 349 MELCHIOR ERIC 00:49:36 V2M 31 00:17:03 00:15:36 - 12,097 04:58
264 328 CONDETTE JEAN-LUC 00:49:38 V3M 7 00:17:05 00:07:56 - 12,089 04:58
265 90 CHEVALIER NOEMIE 00:49:47 SEF 18 00:17:14 00:12:32 - 12,052 04:59
266 179 BENARD NICOLAS 00:49:58 SEM 104 00:17:25 00:17:25 PATRIOTES CROSS DE GUINES 12,008 05:00
267 133 LEVISSE DENIS 00:49:59 V3M 8 00:17:26 00:08:17 COLEMBERT 12,004 05:00
268 99 LEBLANC LYDIE 00:50:15 V2F 6 00:17:42 00:05:47 A.S. MARCK 11,940 05:01
269 247 PRZYBYSZ THOMAS 00:50:36 SEM 105 00:18:03 00:18:03 - 11,858 05:04
270 207 MALFOY JEAN-PIERRE 00:50:42 V3M 9 00:18:09 00:09:00 SAINT MARTIN ATHLETISME 11,834 05:04
271 15 LATIOUI YACINE 00:51:04 SEM 106 00:18:31 00:18:31 OXYGENE 11,749 05:06
272 114 GOUDAL NATHALIE 00:51:10 V2F 7 00:18:37 00:06:42 A.S. MARCK 11,726 05:07
273 2 RIGAUX MAXIME 00:51:25 SEM 107 00:18:52 00:18:52 - 11,669 05:08
274 189 MASZOTA DARIA 00:51:33 SEF 19 00:19:00 00:14:18 LE DRAPEAU 11,639 05:09
275 410 LEBAS ELISABETH 00:51:38 SEF 20 00:19:05 00:14:23 AC - VILLENEUVE D'ASCQ 11,620 05:10
276 411 SILVA MARQUES DIAZ MIGUEL 00:51:39 SEM 108 00:19:06 00:19:06 - 11,617 05:10
277 165 REGNAULT ERIC 00:51:39 V2M 32 00:19:06 00:17:39 TRIATHLON MONTREUIL 11,617 05:10
278 108 MATHUREL DELPHINE 00:51:39 SEF 21 00:19:06 00:14:24 BOULOGNE ATHLETIQUE CLUB 11,617 05:10
279 113 FONTAINE CAMILLE 00:51:45 SEF 22 00:19:12 00:14:30 - 11,594 05:11
280 5 VANDOMME DENIS 00:51:50 V1M 92 00:19:17 00:18:21 US LEFFRINCKOUCKE JOGGING 11,576 05:11
281 199 HANON LILIANE 00:51:50 V3F 1 00:19:17 00:00:00 LE DRAPEAU 11,576 05:11
282 232 PARISSEAUX MATHIEU 00:52:03 SEM 109 00:19:30 00:19:30 - 11,527 05:12
283 363 FRAMMERY GAUTHIER 00:52:04 SEM 110 00:19:31 00:19:31 11,524 05:12
284 229 DELVALLE THOMAS 00:52:10 SEM 111 00:19:37 00:19:37 DESVRES ATHLETISME 11,502 05:13
285 169 SEGUIN DIDIER 00:52:17 V2M 33 00:19:44 00:18:17 SPORT PLUS 11,476 05:14
286 278 BOULET-NEGRI PASCALE 00:52:20 V1F 7 00:19:47 00:14:08 ATHLETISME CLUB OUTREAU 11,465 05:14
287 161 PODEVIN SERGE 00:52:22 V2M 34 00:19:49 00:18:22 ELAN FRUGEOIS 11,458 05:14
288 89 DEFOSSE STEPHANIE 00:52:38 V1F 8 00:20:05 00:14:26 BLANC NEZ TRIATHLON 11,400 05:16
289 78 MASSET TONY 00:52:44 V1M 93 00:20:11 00:19:15 - 11,378 05:16
290 25 AUFAURE JEROME 00:52:45 SEM 112 00:20:12 00:20:12 - 11,374 05:17
291 83 PEQUEUX ROMAIN 00:52:53 SEM 113 00:20:20 00:20:20 - 11,346 05:17
292 93 LESCOP GUILLAUME 00:52:53 SEM 114 00:20:20 00:20:20 JEUNESSE CAPELLOISE 11,346 05:17
293 94 LESCOP ALAIN 00:52:54 V2M 35 00:20:21 00:18:54 JEUNESSE CAPELLOISE 11,342 05:17
294 290 PREMEAU CHRISTINE 00:53:03 V2F 8 00:20:30 00:08:35 ATHLETISME CLUB OUTREAU 11,310 05:18
295 153 DEBAS GERARD 00:53:14 V3M 10 00:20:41 00:11:32 - 11,271 05:19
296 252 FOURNIER AMELIE 00:53:14 SEF 23 00:20:41 00:15:59 - 11,271 05:19
297 378 BOUDHAIN MICLAL 00:53:25 V1M 94 00:20:52 00:19:56 - 11,232 05:21
298 32 BARRAS CARINE 00:53:29 SEF 24 00:20:56 00:16:14 - 11,218 05:21
299 118 BARRAS JULIEN 00:53:29 SEM 115 00:20:56 00:20:56 A.S. MARCK 11,218 05:21
300 267 LEFRANC STEPHANE 00:53:53 SEM 116 00:21:20 00:21:20 PATRIOTES CROSS DE GUINES 11,135 05:23
301 237 MALLET VINCENT 00:53:57 V1M 95 00:21:24 00:20:28 - 11,121 05:24
302 346 FONTAINE VANESSA 00:54:13 SEF 25 00:21:40 00:16:58 - 11,067 05:25
303 291 SEGUIN AURORE 00:54:15 SEF 26 00:21:42 00:17:00 ATHLETISME CLUB OUTREAU 11,060 05:26
304 96 BOCQUET GERARD 00:54:18 V3M 11 00:21:45 00:12:36 - 11,050 05:26
305 258 SCHILLE STEPHANIE 00:54:21 V1F 9 00:21:48 00:16:09 SO CALAIS 11,040 05:26
306 95 BALLY JULIEN 00:54:24 SEM 117 00:21:51 00:21:51 - 11,029 05:26
307 45 PIDOU EMILIE 00:54:27 SEF 27 00:21:54 00:17:12 - 11,019 05:27
308 33 DELACOURT ANNE-SOPHIE 00:54:35 SEF 28 00:22:02 00:17:20 A.S. MARCK 10,992 05:28
309 170 HUCHIN BENJAMIN 00:54:52 SEM 118 00:22:19 00:22:19 - 10,936 05:29
310 104 LEPINE GREGORY 00:54:57 V1M 96 00:22:24 00:21:28 - 10,919 05:30
311 200 MODOLO FANNY 00:55:00 V1F 10 00:22:27 00:16:48 LE DRAPEAU 10,909 05:30
312 306 CRETON INGRID 00:55:02 SEF 29 00:22:29 00:17:47 - 10,902 05:30
313 194 CANVA NATHALIE 00:55:03 V1F 11 00:22:30 00:16:51 LE DRAPEAU 10,899 05:30
314 48 LEFEBVRE LYDIA 00:55:17 V1F 12 00:22:44 00:17:05 - 10,853 05:32
315 174 LOEULLIER BETTY 00:55:21 V1F 13 00:22:48 00:17:09 - 10,840 05:32
316 130 PATTE FREDERIQUE 00:55:26 V2F 9 00:22:53 00:10:58 A.S. MARCK 10,824 05:33
317 280 BRILLARD CHRISTELE 00:55:45 SEF 30 00:23:12 00:18:30 ATHLETISME CLUB OUTREAU 10,762 05:35
318 314 WATTEL MARIE LINE 00:55:51 V1F 14 00:23:18 00:17:39 - 10,743 05:35
319 62 JACQUART ANNIE 00:55:51 V2F 10 00:23:18 00:11:23 - 10,743 05:35
320 409 BUCHET LAURENCE 00:56:01 V1F 15 00:23:28 00:17:49 CULTURE DANSE 10,711 05:36
321 185 DELEPIERRE ESTELLE 00:56:01 SEF 31 00:23:28 00:18:46 JOGGING CLUB LICQUOIS 10,711 05:36
322 20 BAGES EMELINE 00:56:09 SEF 32 00:23:36 00:18:54 - 10,686 05:37
323 148 HONVAULT LINDA 00:56:09 SEF 33 00:23:36 00:18:54 - 10,686 05:37
324 158 BEGUE AMELIE 00:56:10 SEF 34 00:23:37 00:18:55 - 10,682 05:37
325 163 WILLEMAND HERVE 00:56:13 V3M 12 00:23:40 00:14:31 - 10,673 05:37
326 58 MASSET ANNE 00:56:14 V1F 16 00:23:41 00:18:02 COURIR DANS LE LUMBROIS 10,670 05:37
327 56 EVRARD LAETITIA 00:56:20 V1F 17 00:23:47 00:18:08 COURIR DANS LE LUMBROIS 10,651 05:38
328 181 CHEVALIER LAURINE 00:56:50 SEF 35 00:24:17 00:19:35 PATRIOTES CROSS DE GUINES 10,557 05:41
329 147 GOTTRAND FRANCINE 00:57:36 V3F 2 00:25:03 00:05:46 - 10,417 05:46
330 260 DEHARTE JOSEPHINE 00:57:38 SEF 36 00:25:05 00:20:23 SO CALAIS 10,411 05:46
331 256 CARON KARINE 00:57:39 V1F 18 00:25:06 00:19:27 SO CALAIS 10,408 05:46
332 69 DETRES SYLVIA 00:57:46 V1F 19 00:25:13 00:19:34 - 10,387 05:47
333 68 BERTOUT INGRID 00:58:26 SEF 37 00:25:53 00:21:11 - 10,268 05:51
334 67 SABATIER JULIE 00:58:26 SEF 38 00:25:53 00:21:11 - 10,268 05:51
335 109 LAVIGNE MAGALI 00:58:29 V1F 20 00:25:56 00:20:17 OXYGENE FITNESS 10,259 05:51
336 51 NOREL ALEXIS 00:58:48 SEM 119 00:26:15 00:26:15 - 10,204 05:53
337 65 HENNEQUIN DOMINIQUE 00:59:05 V2M 36 00:26:32 00:25:05 AS CE ADP 10,155 05:54
338 313 SANCHEZ PABLITO 00:59:10 V2M 37 00:26:37 00:25:10 - 10,141 05:55
339 296 CALON SYLVIE 00:59:11 V2F 11 00:26:38 00:14:43 WIMEREUX RUNNING CLUB 10,138 05:55
340 180 DUFOSSE SYLVIE 00:59:18 V2F 12 00:26:45 00:14:50 PATRIOTES CROSS DE GUINES 10,118 05:56
341 187 CAUX STEPHANIE 00:59:26 SEF 39 00:26:53 00:22:11 LE DRAPEAU 10,095 05:57
342 308 LOPEZ CINDY 00:59:38 SEF 40 00:27:05 00:22:23 - 10,061 05:58
343 34 MACREZ JEROME 00:59:41 SEM 120 00:27:08 00:27:08 - 10,053 05:58
344 10 MACREZ SABRINA 00:59:42 SEF 41 00:27:09 00:22:27 - 10,050 05:58
345 162 DENUDT COLETTE 00:59:43 V2F 13 00:27:10 00:15:15 ELAN FRUGEOIS 10,047 05:58
346 205 BOCQUET REJANE 00:59:45 V4F 1 00:27:12 00:00:00 SAINT MARTIN ATHLETISME 10,042 05:58
347 281 DELABY JULIEN 01:00:24 SEM 121 00:27:51 00:27:51 ATHLETISME CLUB OUTREAU 9,934 06:02
348 356 FABRE FLORIANE 01:00:27 V2F 14 00:27:54 00:15:59 - 9,926 06:03
349 16 LATIOUI JENNIFER 01:00:37 SEF 42 00:28:04 00:23:22 OXYGENE 9,898 06:04
350 355 BOCQUET CHRISTOPHE 01:00:38 V2M 38 00:28:05 00:26:38 - 9,896 06:04
351 70 BOSQUET SOPHIE 01:00:44 SEF 43 00:28:11 00:23:29 - 9,879 06:04
352 309 CALON ROGER 01:01:00 V2M 39 00:28:27 00:27:00 ATHLETISME CLUB OUTREAU 9,836 06:06
353 338 BRONET CARINE 01:01:11 SEF 44 00:28:38 00:23:56 - 9,807 06:07
354 324 LARCHER BEATRICE 01:01:28 V1F 21 00:28:55 00:23:16 - 9,761 06:09
355 85 CROOKS ISABELLE 01:02:05 V1F 22 00:29:32 00:23:53 - 9,664 06:12
356 84 DESOMBRE AURELIE 01:02:06 V1F 23 00:29:33 00:23:54 - 9,662 06:13
357 262 BAUDE STEPHANIE 01:03:11 V1F 24 00:30:38 00:24:59 - 9,496 06:19
358 298 HENDRYCKS-FORTIN ALEXA 01:03:15 SEF 45 00:30:42 00:26:00 WIMEREUX RUNNING CLUB 9,486 06:19
359 300 PETIT CLAIRE 01:03:15 SEF 46 00:30:42 00:26:00 WIMEREUX RUNNING CLUB 9,486 06:19
360 12 GORRE DELPHINE 01:03:32 V1F 25 00:30:59 00:25:20 - 9,444 06:21
361 183 PORTIER PASCALE 01:07:01 V2F 15 00:34:28 00:22:33 - 8,953 06:42
362 326 DENIS NORBERT 01:07:01 V3M 13 00:34:28 00:25:19 - 8,953 06:42
363 73 POCHET SEVERINE 01:15:04 SEF 47 00:42:31 00:37:49 - 7,993 07:30